Time;durP1;ratioP1;P1;durP2;ratioP2;P2;SDS_P1;SDS_P2;PMS_P1;PMS_P2;Temp;Humidity;BMP_temperature;BMP_pressure;BME280_temperature;BME280_humidity;BME280_pressure;Samples;Min_cycle;Max_cycle;Signal;HPM_P1;HPM_P2
2023/10/22 00:02:11;;;;;;;16.73;4.27;;;;;;;19.87;59.94;94631.81;4979093;28;20421;-88
2023/10/22 00:04:38;;;;;;;13.77;4.03;;;;;;;19.83;60.74;94642.00;4982871;28;20307;-87
2023/10/22 00:07:04;;;;;;;12.25;3.85;;;;;;;19.79;61.87;94640.06;5003003;28;20026;-87
2023/10/22 00:09:29;;;;;;;17.15;5.10;;;;;;;19.62;62.03;94626.09;4964469;28;20042;-87
2023/10/22 00:11:55;;;;;;;11.20;4.15;;;;;;;19.72;61.91;94644.66;4950807;28;20070;-88
2023/10/22 00:14:20;;;;;;;14.50;4.65;;;;;;;19.62;63.55;94653.13;4979214;28;20030;-87
2023/10/22 00:16:46;;;;;;;14.70;4.03;;;;;;;19.49;63.78;94653.41;4992600;28;20044;-87
2023/10/22 00:19:11;;;;;;;8.77;3.70;;;;;;;19.53;63.47;94644.03;4988513;28;20128;-86
2023/10/22 00:21:37;;;;;;;12.73;4.18;;;;;;;19.59;63.65;94658.84;4988333;28;20037;-86
2023/10/22 00:24:02;;;;;;;15.13;4.65;;;;;;;19.58;61.83;94657.28;4982162;28;20034;-89
2023/10/22 00:26:27;;;;;;;13.82;3.70;;;;;;;19.62;61.71;94663.66;4973148;28;20030;-90
2023/10/22 00:28:53;;;;;;;17.92;3.85;;;;;;;19.58;61.98;94651.22;4997579;28;20035;-90
2023/10/22 00:31:18;;;;;;;16.17;4.68;;;;;;;19.49;62.60;94657.88;4960847;28;20125;-90
2023/10/22 00:33:44;;;;;;;9.68;3.13;;;;;;;19.34;64.50;94632.06;4970594;28;20034;-86
2023/10/22 00:36:09;;;;;;;11.20;3.72;;;;;;;19.21;65.43;94637.56;4979787;28;20392;-90
2023/10/22 00:38:35;;;;;;;11.38;3.60;;;;;;;19.13;65.57;94623.00;5000672;28;20032;-90
2023/10/22 00:41:00;;;;;;;17.13;4.18;;;;;;;19.07;66.77;94618.63;4968318;28;20108;-84
2023/10/22 00:43:25;;;;;;;15.13;3.90;;;;;;;18.94;68.59;94621.53;5001207;28;20049;-84
2023/10/22 00:45:51;;;;;;;16.38;3.70;;;;;;;18.70;70.83;94609.44;4962860;28;20042;-86
2023/10/22 00:48:17;;;;;;;11.25;3.85;;;;;;;18.64;71.82;94610.38;4974600;28;20026;-86
2023/10/22 00:50:43;;;;;;;7.88;3.97;;;;;;;18.61;72.57;94611.63;4965436;28;20034;-85
2023/10/22 00:53:09;;;;;;;15.70;4.05;;;;;;;18.42;73.93;94610.09;4977657;28;20021;-84
2023/10/22 00:55:39;;;;;;;10.13;3.60;;;;;;;18.37;75.47;94618.63;4962508;28;20057;-84
2023/10/22 00:58:05;;;;;;;21.85;4.47;;;;;;;18.20;76.21;94611.69;4988369;28;20025;-86
2023/10/22 01:00:31;;;;;;;18.30;3.80;;;;;;;18.20;75.80;94622.97;4963203;28;20038;-87
2023/10/22 01:02:57;;;;;;;12.30;4.07;;;;;;;18.17;75.79;94623.38;4991171;28;20029;-87
2023/10/22 01:05:22;;;;;;;12.85;4.07;;;;;;;18.07;76.30;94611.88;4997476;28;20044;-88
2023/10/22 01:07:48;;;;;;;19.17;4.32;;;;;;;18.08;76.74;94605.59;5006777;28;20030;-88
2023/10/22 01:10:13;;;;;;;18.15;4.00;;;;;;;18.12;76.49;94610.16;4979006;28;20017;-89
2023/10/22 01:12:39;;;;;;;12.68;3.75;;;;;;;18.04;76.70;94594.78;5007571;28;20030;-91
2023/10/22 01:15:06;;;;;;;10.55;3.58;;;;;;;18.07;77.55;94599.56;5000071;28;20095;-92
2023/10/22 01:17:31;;;;;;;16.73;3.90;;;;;;;17.95;78.12;94593.50;5008389;28;20038;-93
2023/10/22 01:19:57;;;;;;;15.27;4.47;;;;;;;17.96;78.74;94605.59;4993235;28;20075;-90
2023/10/22 01:22:23;;;;;;;13.40;4.03;;;;;;;18.02;78.78;94596.00;5026320;28;20030;-92
2023/10/22 01:24:48;;;;;;;17.38;4.13;;;;;;;18.20;76.42;94591.50;4994664;28;20062;-93
2023/10/22 01:27:14;;;;;;;16.35;4.38;;;;;;;18.23;76.23;94577.13;5007015;28;20427;-93
2023/10/22 01:29:39;;;;;;;14.40;3.67;;;;;;;18.52;75.14;94578.91;4967833;28;20034;-91
2023/10/22 01:32:05;;;;;;;18.00;3.90;;;;;;;18.77;73.44;94578.63;5006316;28;20033;-89
2023/10/22 01:34:30;;;;;;;11.63;3.92;;;;;;;18.45;74.56;94559.81;4976916;28;20031;-87
2023/10/22 01:36:56;;;;;;;12.10;3.55;;;;;;;18.54;75.61;94597.00;5002346;28;20029;-90
2023/10/22 01:39:22;;;;;;;14.00;4.20;;;;;;;18.46;75.79;94573.72;4996429;28;20022;-87
2023/10/22 01:41:48;;;;;;;11.30;3.28;;;;;;;18.65;74.72;94589.16;4973162;28;20117;-86
2023/10/22 01:44:13;;;;;;;13.00;3.70;;;;;;;18.55;75.00;94564.50;5015042;28;20041;-86
2023/10/22 01:46:39;;;;;;;13.07;3.53;;;;;;;18.62;74.87;94562.56;4965444;28;20038;-86
2023/10/22 01:49:04;;;;;;;15.43;3.85;;;;;;;18.81;72.89;94582.41;4983113;28;20554;-86
2023/10/22 01:51:30;;;;;;;9.95;3.42;;;;;;;18.12;76.94;94547.25;4967940;28;20334;-86
2023/10/22 01:53:55;;;;;;;11.90;4.03;;;;;;;18.10;78.27;94564.25;4992493;28;20054;-89
2023/10/22 01:56:21;;;;;;;9.20;3.67;;;;;;;18.11;78.56;94587.59;4977884;28;20057;-91
2023/10/22 01:58:46;;;;;;;16.88;3.80;;;;;;;17.89;78.62;94586.53;4976869;28;20030;-89
2023/10/22 02:01:12;;;;;;;13.18;4.03;;;;;;;17.94;78.85;94585.88;4971115;28;20518;-90
2023/10/22 02:03:37;;;;;;;10.18;3.33;;;;;;;17.86;79.35;94558.16;4988829;28;20042;-91
2023/10/22 02:06:13;;;;;;;14.73;4.05;;;;;;;17.95;80.65;94588.25;4957571;28;20460;-90
2023/10/22 02:08:39;;;;;;;16.35;4.50;;;;;;;17.75;81.66;94582.53;4990952;28;20025;-89
2023/10/22 02:11:05;;;;;;;10.88;3.83;;;;;;;17.67;81.66;94586.25;4982229;28;20044;-90
2023/10/22 02:13:30;;;;;;;17.20;4.05;;;;;;;17.74;81.46;94584.34;5007585;28;20037;-92
2023/10/22 02:15:56;;;;;;;10.90;3.55;;;;;;;17.82;79.59;94578.75;5009094;28;20025;-92
2023/10/22 02:18:22;;;;;;;16.77;3.85;;;;;;;17.98;79.63;94579.94;4989998;28;20479;-90
2023/10/22 02:20:59;;;;;;;11.85;4.15;;;;;;;17.80;80.71;94580.81;4984518;28;20123;-90
2023/10/22 02:23:24;;;;;;;10.25;4.38;;;;;;;17.69;81.84;94576.34;5006132;28;20039;-90
2023/10/22 02:25:50;;;;;;;14.75;4.07;;;;;;;17.72;80.93;94575.88;4992457;28;20021;-93
2023/10/22 02:28:16;;;;;;;8.95;3.22;;;;;;;17.72;80.88;94578.50;4991532;28;20044;-92
2023/10/22 02:30:42;;;;;;;14.00;3.80;;;;;;;17.64;81.48;94570.97;4989299;28;20649;-87
2023/10/22 02:33:08;;;;;;;9.70;4.00;;;;;;;17.76;82.41;94577.03;5005099;28;20102;-88
2023/10/22 02:35:40;;;;;;;9.73;3.67;;;;;;;17.73;81.82;94600.28;4991572;28;20113;-89
2023/10/22 02:38:06;;;;;;;12.57;3.97;;;;;;;17.53;82.72;94561.22;4988572;28;20402;-90
2023/10/22 02:40:38;;;;;;;12.63;3.83;;;;;;;17.53;83.09;94574.31;4991342;28;20502;-95
2023/10/22 02:43:03;;;;;;;10.35;3.88;;;;;;;17.61;82.59;94586.34;4990292;28;20054;-93
2023/10/22 02:45:29;;;;;;;8.63;3.38;;;;;;;17.63;82.92;94590.31;5007954;28;20036;-95
2023/10/22 02:47:56;;;;;;;13.15;3.92;;;;;;;17.76;81.58;94571.00;5007449;28;20021;-92
2023/10/22 02:50:24;;;;;;;18.33;3.50;;;;;;;17.78;80.17;94576.84;4978747;28;20031;-90
2023/10/22 02:52:49;;;;;;;17.63;3.22;;;;;;;17.82;79.84;94578.75;4979782;28;20542;-94
2023/10/22 02:55:15;;;;;;;13.52;4.03;;;;;;;17.79;79.35;94573.16;4970163;28;20147;-93
2023/10/22 02:57:40;;;;;;;11.98;3.60;;;;;;;17.77;79.11;94580.47;4970745;28;20029;-93
2023/10/22 03:00:10;;;;;;;14.68;3.97;;;;;;;17.61;80.61;94571.44;4988145;28;20034;-93
2023/10/22 03:02:41;;;;;;;10.68;3.63;;;;;;;17.68;81.07;94594.91;4976011;28;20108;-93
2023/10/22 03:05:08;;;;;;;7.80;3.25;;;;;;;17.72;80.69;94580.34;4964311;28;20358;-92
2023/10/22 03:07:33;;;;;;;10.23;3.15;;;;;;;18.50;73.99;94565.19;4962175;28;20034;-92
2023/10/22 03:09:59;;;;;;;11.52;3.92;;;;;;;19.21;69.67;94554.34;4981343;28;20057;-91
2023/10/22 03:12:24;;;;;;;11.30;3.40;;;;;;;19.53;67.97;94569.66;4960038;28;20034;-92
2023/10/22 03:14:53;;;;;;;13.75;3.85;;;;;;;19.72;66.52;94553.47;4986011;28;20501;-86
2023/10/22 03:17:19;;;;;;;6.32;3.03;;;;;;;19.97;65.18;94551.25;4979245;28;20515;-90
2023/10/22 03:19:45;;;;;;;15.60;3.83;;;;;;;20.28;63.55;94554.41;4986501;28;20038;-85
2023/10/22 03:22:10;;;;;;;9.57;3.38;;;;;;;20.50;61.87;94553.44;4988963;28;20029;-88
2023/10/22 03:24:36;;;;;;;22.58;3.58;;;;;;;20.48;61.03;94531.81;5000586;28;20017;-91
2023/10/22 03:27:04;;;;;;;18.05;3.90;;;;;;;20.45;61.57;94542.81;4979570;28;20018;-89
2023/10/22 03:29:30;;;;;;;14.90;4.38;;;;;;;20.45;61.68;94542.81;4971561;28;20136;-88
2023/10/22 03:31:55;;;;;;;17.85;4.18;;;;;;;20.44;61.74;94541.25;4958650;28;20108;-89
2023/10/22 03:34:20;;;;;;;13.32;4.00;;;;;;;20.35;61.85;94537.44;4977832;28;20149;-88
2023/10/22 03:36:46;;;;;;;9.85;3.50;;;;;;;20.26;62.55;94527.53;4984771;28;20045;-92
2023/10/22 03:39:13;;;;;;;9.65;3.58;;;;;;;20.03;63.85;94509.28;4977317;28;20025;-91
2023/10/22 03:41:39;;;;;;;11.25;3.83;;;;;;;20.02;64.42;94516.38;4966383;28;20050;-84
2023/10/22 03:44:04;;;;;;;13.18;3.92;;;;;;;19.96;64.99;94506.81;4967159;28;20033;-90
2023/10/22 03:46:30;;;;;;;14.13;3.38;;;;;;;19.95;65.35;94505.22;4990631;28;20068;-88
2023/10/22 03:48:57;;;;;;;11.60;3.05;;;;;;;19.95;65.37;94505.22;5013644;28;20109;-87
2023/10/22 03:51:22;;;;;;;12.68;3.65;;;;;;;19.89;66.26;94511.44;4964565;28;20547;-92
2023/10/22 03:53:48;;;;;;;10.77;3.60;;;;;;;19.90;66.64;94513.81;4966932;28;20041;-92
2023/10/22 03:56:14;;;;;;;10.07;3.05;;;;;;;19.89;66.54;94527.19;4981793;28;20072;-87
2023/10/22 03:58:40;;;;;;;20.45;3.92;;;;;;;19.70;67.68;94520.56;4995484;28;20061;-90
2023/10/22 04:01:05;;;;;;;12.13;3.85;;;;;;;19.72;67.86;94531.63;4990627;28;20514;-84
2023/10/22 04:03:31;;;;;;;9.98;3.85;;;;;;;19.58;68.86;94520.66;4965043;28;20055;-82
2023/10/22 04:05:57;;;;;;;7.50;3.50;;;;;;;19.52;69.37;94518.97;5009273;28;20037;-87
2023/10/22 04:08:23;;;;;;;9.10;3.70;;;;;;;19.46;69.33;94515.44;4979559;28;20030;-88
2023/10/22 04:10:49;;;;;;;12.07;3.72;;;;;;;19.41;70.02;94522.44;4963157;28;20038;-90
2023/10/22 04:13:15;;;;;;;11.27;3.75;;;;;;;19.18;71.00;94520.66;4987262;28;20025;-93
2023/10/22 04:15:40;;;;;;;12.52;3.95;;;;;;;19.31;70.72;94525.66;4968911;28;20088;-89
2023/10/22 04:18:05;;;;;;;20.27;4.00;;;;;;;19.32;71.43;94537.75;5001857;28;20029;-80
2023/10/22 04:20:33;;;;;;;7.60;3.95;;;;;;;19.33;71.31;94530.66;5007217;28;20554;-88
2023/10/22 04:22:58;;;;;;;16.17;4.20;;;;;;;19.21;71.99;94537.78;4992684;28;20030;-88
2023/10/22 04:25:24;;;;;;;12.10;3.67;;;;;;;19.15;72.32;94528.22;5007020;28;20108;-88
2023/10/22 04:27:49;;;;;;;10.93;3.22;;;;;;;19.25;72.05;94533.66;4991187;28;20033;-93
2023/10/22 04:30:14;;;;;;;12.27;3.65;;;;;;;19.27;71.82;94544.72;4990925;28;20060;-87
2023/10/22 04:32:40;;;;;;;16.92;4.25;;;;;;;19.08;72.58;94535.41;4989521;28;20037;-86
2023/10/22 04:35:06;;;;;;;16.95;3.70;;;;;;;19.07;73.28;94547.75;5026514;28;20021;-85
2023/10/22 04:37:31;;;;;;;12.88;4.20;;;;;;;18.96;73.92;94543.34;5006081;28;20029;-89
2023/10/22 04:39:57;;;;;;;11.80;4.03;;;;;;;18.79;74.95;94545.88;4987969;28;20038;-87
2023/10/22 04:42:23;;;;;;;13.60;4.28;;;;;;;18.65;76.61;94556.88;4963552;28;20066;-91
2023/10/22 04:44:49;;;;;;;10.82;4.28;;;;;;;18.31;77.81;94548.75;4973198;28;20030;-87
2023/10/22 04:47:15;;;;;;;10.55;4.13;;;;;;;18.28;78.41;94564.94;4976078;28;20034;-89
2023/10/22 04:49:42;;;;;;;12.52;4.65;;;;;;;18.26;78.42;94564.38;5025685;28;20486;-90
2023/10/22 04:52:10;;;;;;;8.88;3.95;;;;;;;18.15;79.21;94578.25;4995466;28;20870;-87
2023/10/22 04:54:36;;;;;;;15.45;4.43;;;;;;;18.03;79.34;94574.84;4992285;28;20033;-89
2023/10/22 04:57:02;;;;;;;15.00;4.32;;;;;;;18.19;79.05;94586.47;4973301;28;20033;-89
2023/10/22 04:59:28;;;;;;;15.85;4.50;;;;;;;18.15;79.70;94596.63;4993967;28;20526;-89
2023/10/22 05:01:53;;;;;;;12.32;3.78;;;;;;;18.07;79.23;94602.19;4975413;28;20026;-89
2023/10/22 05:04:19;;;;;;;19.70;3.95;;;;;;;18.01;80.24;94590.00;4985797;28;20041;-89
2023/10/22 05:06:45;;;;;;;16.63;4.38;;;;;;;18.17;79.53;94594.56;4963270;28;20038;-89
2023/10/22 05:09:10;;;;;;;12.70;4.30;;;;;;;18.22;79.59;94576.34;4964608;28;20549;-88
2023/10/22 05:11:35;;;;;;;15.10;4.50;;;;;;;18.33;79.77;94578.16;4996782;28;20029;-91
2023/10/22 05:14:01;;;;;;;18.80;4.38;;;;;;;18.46;79.16;94586.84;4966144;28;20032;-91
2023/10/22 05:16:29;;;;;;;9.18;4.10;;;;;;;18.60;78.74;94578.53;5005745;28;20033;-90
2023/10/22 05:18:54;;;;;;;12.23;4.60;;;;;;;18.81;78.11;94580.59;4983826;28;20262;-90
2023/10/22 05:21:20;;;;;;;10.68;3.97;;;;;;;18.89;78.87;94590.72;4961676;28;20029;-89
2023/10/22 05:23:45;;;;;;;12.98;4.50;;;;;;;18.90;79.29;94588.91;4982206;28;20041;-90
2023/10/22 05:26:12;;;;;;;10.88;4.28;;;;;;;18.90;78.08;94581.03;4986477;28;20435;-90
2023/10/22 05:28:38;;;;;;;12.05;3.90;;;;;;;19.05;77.46;94591.81;5003518;28;20353;-90
2023/10/22 05:31:18;;;;;;;14.98;3.80;;;;;;;19.16;77.59;94598.91;4976150;28;20034;-90
2023/10/22 05:33:44;;;;;;;15.52;4.30;;;;;;;19.19;76.84;94587.91;5003404;28;20059;-88
2023/10/22 05:36:17;;;;;;;11.35;3.70;;;;;;;19.04;77.91;94577.09;5001779;28;20029;-89
2023/10/22 05:38:43;;;;;;;16.38;3.90;;;;;;;19.17;77.90;94589.97;4974530;28;20030;-90
2023/10/22 05:41:22;;;;;;;11.30;3.65;;;;;;;19.31;77.69;94604.44;5006590;28;20105;-91
2023/10/22 05:43:51;;;;;;;14.15;4.30;;;;;;;19.37;77.57;94606.13;4991500;28;20545;-90
2023/10/22 05:46:16;;;;;;;15.68;5.05;;;;;;;19.30;78.50;94600.22;4997855;28;20434;-89
2023/10/22 05:48:42;;;;;;;12.85;5.18;;;;;;;19.27;78.04;94598.03;5022891;28;20507;-91
2023/10/22 05:51:07;;;;;;;14.90;5.00;;;;;;;19.41;76.67;94615.19;4978128;28;20043;-89
2023/10/22 05:53:33;;;;;;;17.00;5.00;;;;;;;19.33;77.03;94602.38;4985829;28;20080;-90
2023/10/22 05:55:58;;;;;;;20.23;5.30;;;;;;;19.31;76.92;94606.25;4990501;28;20423;-90
2023/10/22 05:58:24;;;;;;;14.02;4.43;;;;;;;19.33;76.99;94604.19;4972483;28;20453;-89
2023/10/22 06:00:50;;;;;;;13.20;4.50;;;;;;;19.25;78.17;94621.13;4992347;28;20034;-90
2023/10/22 06:03:16;;;;;;;16.23;4.70;;;;;;;19.29;77.88;94619.66;4977698;28;20049;-90
2023/10/22 06:05:41;;;;;;;12.13;4.55;;;;;;;19.23;77.76;94615.28;4978698;28;20041;-90
2023/10/22 06:08:07;;;;;;;17.92;4.80;;;;;;;19.23;78.23;94638.16;4967773;28;20526;-90
2023/10/22 06:10:42;;;;;;;14.13;4.55;;;;;;;19.20;77.60;94639.38;4979954;28;20491;-90
2023/10/22 06:13:08;;;;;;;15.00;6.90;;;;;;;19.19;77.68;94648.31;5003253;28;20111;-90
2023/10/22 06:15:39;;;;;;;17.70;6.22;;;;;;;19.16;77.95;94646.16;5000561;28;20034;-90
2023/10/22 06:18:05;;;;;;;12.88;5.43;;;;;;;19.21;78.06;94651.50;4978108;28;20606;-89
2023/10/22 06:20:32;;;;;;;19.70;4.57;;;;;;;19.16;78.86;94654.03;4983586;28;20026;-88
2023/10/22 06:22:57;;;;;;;9.40;3.88;;;;;;;19.00;77.57;94633.75;4976176;28;20030;-91
2023/10/22 06:25:23;;;;;;;14.35;4.43;;;;;;;19.13;77.59;94659.75;4965957;28;20093;-90
2023/10/22 06:27:49;;;;;;;9.73;4.15;;;;;;;19.14;77.70;94665.78;4970970;28;20400;-90
2023/10/22 06:30:14;;;;;;;16.63;4.60;;;;;;;19.09;77.75;94645.47;4975556;28;20526;-89
2023/10/22 06:32:40;;;;;;;12.52;4.53;;;;;;;19.08;78.03;94648.31;4982419;28;20036;-90
2023/10/22 06:35:07;;;;;;;19.23;4.97;;;;;;;19.09;78.56;94661.22;4967027;28;20053;-90
2023/10/22 06:37:32;;;;;;;18.48;8.00;;;;;;;19.08;78.70;94661.44;4983528;28;20030;-90
2023/10/22 06:40:01;;;;;;;26.05;9.82;;;;;;;19.13;79.46;94649.25;4984773;28;20088;-88
2023/10/22 06:42:26;;;;;;;29.60;11.30;;;;;;;19.19;80.07;94661.44;4993107;28;20037;-88
2023/10/22 06:44:52;;;;;;;24.80;9.05;;;;;;;19.23;81.28;94673.06;5003803;28;20087;-90
2023/10/22 06:47:17;;;;;;;18.77;6.63;;;;;;;19.21;79.46;94666.47;4979622;28;20073;-89
2023/10/22 06:49:43;;;;;;;17.40;4.93;;;;;;;19.26;79.41;94688.41;5002705;28;20411;-88
2023/10/22 06:52:08;;;;;;;17.35;4.65;;;;;;;19.15;79.12;94686.56;4963221;28;20041;-91
2023/10/22 06:54:34;;;;;;;20.58;4.90;;;;;;;19.26;79.14;94732.25;4990910;28;20021;-87
2023/10/22 06:56:59;;;;;;;18.88;4.93;;;;;;;19.12;79.79;94718.53;4978760;28;20034;-87
2023/10/22 06:59:25;;;;;;;29.42;8.23;;;;;;;19.14;78.86;94719.09;5002415;28;20029;-86
2023/10/22 07:01:50;;;;;;;15.20;4.43;;;;;;;18.98;77.48;94698.78;4980160;28;20026;-91
2023/10/22 07:04:17;;;;;;;14.48;5.28;;;;;;;18.99;77.65;94695.13;4980065;28;20041;-89
2023/10/22 07:06:43;;;;;;;11.23;4.53;;;;;;;18.93;77.56;94701.31;4994047;28;20038;-90
2023/10/22 07:09:09;;;;;;;13.32;4.47;;;;;;;19.00;77.27;94694.13;4969793;28;20480;-87
2023/10/22 07:11:35;;;;;;;17.23;4.50;;;;;;;19.04;77.77;94687.34;5005716;28;20458;-89
2023/10/22 07:14:01;;;;;;;11.50;4.75;;;;;;;19.07;77.92;94699.25;4971128;28;20502;-87
2023/10/22 07:16:26;;;;;;;13.20;4.18;;;;;;;18.98;77.97;94696.16;4966621;28;20037;-91
2023/10/22 07:18:52;;;;;;;25.63;5.40;;;;;;;18.94;77.78;94697.66;4971960;28;20030;-88
2023/10/22 07:21:18;;;;;;;18.50;5.45;;;;;;;19.02;77.33;94701.75;4975654;28;20407;-91
2023/10/22 07:23:43;;;;;;;15.20;5.20;;;;;;;19.06;77.02;94710.78;5002702;28;20037;-91
2023/10/22 07:26:08;;;;;;;26.88;7.18;;;;;;;19.17;76.46;94705.50;4979677;28;20486;-88
2023/10/22 07:28:34;;;;;;;21.23;8.80;;;;;;;19.21;75.43;94711.91;4978198;28;20041;-90
2023/10/22 07:30:59;;;;;;;24.50;11.13;;;;;;;19.24;75.23;94706.19;4972473;28;20113;-90
2023/10/22 07:33:27;;;;;;;28.48;13.05;;;;;;;19.39;75.13;94709.13;4974979;28;20043;-91
2023/10/22 07:35:53;;;;;;;25.73;10.40;;;;;;;19.41;74.20;94701.88;4972994;28;20029;-86
2023/10/22 07:38:19;;;;;;;20.27;7.32;;;;;;;19.61;73.58;94712.00;4988875;28;20021;-90
2023/10/22 07:40:44;;;;;;;41.80;19.63;;;;;;;19.60;73.63;94710.41;5002957;28;20030;-91
2023/10/22 07:43:10;;;;;;;22.08;9.73;;;;;;;19.66;73.64;94714.72;4995992;28;20083;-87
2023/10/22 07:45:38;;;;;;;19.27;7.00;;;;;;;19.82;73.29;94692.97;5002813;28;20038;-90
2023/10/22 07:48:04;;;;;;;16.77;5.45;;;;;;;19.80;73.33;94696.84;5014154;28;20030;-85
2023/10/22 07:50:29;;;;;;;13.75;5.07;;;;;;;19.82;73.20;94692.16;5020183;28;20443;-91
2023/10/22 07:52:54;;;;;;;16.48;5.28;;;;;;;20.17;72.51;94703.34;4995410;28;20455;-84
2023/10/22 07:55:20;;;;;;;19.85;5.15;;;;;;;20.23;72.27;94712.91;5000886;28;20400;-90
2023/10/22 07:57:45;;;;;;;14.13;4.60;;;;;;;20.47;71.93;94709.16;4967317;28;20773;-83
2023/10/22 08:00:11;;;;;;;16.65;5.25;;;;;;;20.49;71.62;94701.81;4990431;28;20018;-84
2023/10/22 08:02:37;;;;;;;19.58;4.43;;;;;;;20.45;70.58;94698.06;4963620;28;20120;-88
2023/10/22 08:05:02;;;;;;;18.50;5.30;;;;;;;20.55;69.89;94689.53;4975310;28;20032;-87
2023/10/22 08:07:28;;;;;;;17.50;5.15;;;;;;;20.78;69.55;94681.50;4989996;28;20042;-88
2023/10/22 08:09:53;;;;;;;12.88;4.40;;;;;;;20.83;68.89;94680.78;4968163;28;20018;-89
2023/10/22 08:12:18;;;;;;;18.48;5.53;;;;;;;20.73;69.03;94680.63;5000311;28;20034;-89
2023/10/22 08:14:44;;;;;;;19.00;5.85;;;;;;;20.89;68.58;94685.88;4996884;28;20030;-90
2023/10/22 08:17:09;;;;;;;15.55;5.20;;;;;;;21.05;67.02;94679.00;4952499;28;20349;-90
2023/10/22 08:19:35;;;;;;;14.25;4.63;;;;;;;21.18;66.17;94683.16;4975387;28;20048;-90
2023/10/22 08:22:00;;;;;;;15.77;4.85;;;;;;;21.48;66.91;94692.25;4967124;28;20073;-89
2023/10/22 08:24:25;;;;;;;16.88;5.13;;;;;;;21.60;67.50;94691.34;4983991;28;20567;-89
2023/10/22 08:26:51;;;;;;;11.65;4.38;;;;;;;21.71;66.92;94679.88;4977965;28;20200;-88
2023/10/22 08:29:16;;;;;;;20.83;4.20;;;;;;;21.72;65.95;94684.09;4987632;28;20034;-89
2023/10/22 08:31:42;;;;;;;16.95;5.38;;;;;;;21.98;65.41;94681.53;4998992;28;20080;-88
2023/10/22 08:34:07;;;;;;;11.77;4.63;;;;;;;22.53;61.97;94670.72;4982624;28;20077;-89
2023/10/22 08:36:35;;;;;;;17.08;5.07;;;;;;;23.58;57.21;94680.44;4992484;28;20026;-89
2023/10/22 08:39:00;;;;;;;14.30;4.25;;;;;;;23.62;57.48;94662.22;4981303;28;20251;-89
2023/10/22 08:41:33;;;;;;;18.75;4.43;;;;;;;23.95;57.43;94679.53;4984255;28;20045;-89
2023/10/22 08:44:02;;;;;;;16.95;5.80;;;;;;;24.19;55.83;94666.63;4992142;28;20044;-83
2023/10/22 08:46:27;;;;;;;14.60;5.07;;;;;;;23.66;57.72;94667.78;4994810;28;20118;-90
2023/10/22 08:48:53;;;;;;;13.38;4.75;;;;;;;22.79;60.26;94668.31;4987169;28;20484;-87
2023/10/22 08:51:22;;;;;;;16.08;4.28;;;;;;;22.64;61.74;94670.78;5001552;28;20033;-87
2023/10/22 08:53:47;;;;;;;11.10;4.65;;;;;;;22.65;62.44;94662.63;5001157;28;20056;-88
2023/10/22 08:56:13;;;;;;;16.63;4.57;;;;;;;23.01;61.09;94671.63;4984794;28;20128;-88
2023/10/22 08:58:38;;;;;;;10.10;4.50;;;;;;;23.47;60.01;94676.16;5001839;28;20483;-87
2023/10/22 09:01:04;;;;;;;18.30;5.10;;;;;;;23.95;59.10;94676.88;4995207;28;20045;-87
2023/10/22 09:03:31;;;;;;;20.45;4.93;;;;;;;24.66;56.62;94668.00;4993979;28;20042;-88
2023/10/22 09:05:57;;;;;;;18.98;4.63;;;;;;;23.46;59.02;94679.88;4987682;28;20075;-88
2023/10/22 09:08:40;;;;;;;43.88;6.47;;;;;;;22.79;60.79;94673.59;4995086;28;20021;-88
2023/10/22 09:11:12;;;;;;;26.20;5.22;;;;;;;23.12;59.30;94669.88;4975049;28;20033;-87
2023/10/22 09:13:38;;;;;;;17.95;4.43;;;;;;;22.68;61.01;94666.63;4995051;28;20022;-84
2023/10/22 09:16:03;;;;;;;31.30;6.25;;;;;;;23.24;59.58;94675.75;4992250;28;20029;-88
2023/10/22 09:18:29;;;;;;;17.58;4.60;;;;;;;23.42;58.79;94672.69;4991322;28;20079;-82
2023/10/22 09:21:05;;;;;;;23.38;5.15;;;;;;;23.13;60.29;94664.31;4987972;28;20038;-88
2023/10/22 09:23:30;;;;;;;21.02;4.93;;;;;;;22.95;61.06;94677.94;4987457;28;20033;-82
2023/10/22 09:25:56;;;;;;;28.15;5.25;;;;;;;22.72;62.34;94665.09;5021549;28;20030;-83
2023/10/22 09:28:26;;;;;;;21.10;4.80;;;;;;;22.91;62.14;94672.38;4993507;28;20083;-83
2023/10/22 09:31:00;;;;;;;21.80;5.38;;;;;;;23.65;59.88;94661.69;5003208;28;20340;-81
2023/10/22 09:33:36;;;;;;;16.73;4.75;;;;;;;23.59;60.07;94647.66;5011290;28;20033;-82
2023/10/22 09:36:10;;;;;;;12.82;4.47;;;;;;;23.75;58.42;94645.88;4973604;28;20033;-81
2023/10/22 09:38:53;;;;;;;13.07;4.00;;;;;;;23.58;57.26;94642.63;4991970;28;20041;-81
2023/10/22 09:41:25;;;;;;;15.93;4.68;;;;;;;24.81;53.43;94655.81;5020796;28;20578;-83
2023/10/22 09:43:52;;;;;;;16.15;4.63;;;;;;;24.73;54.86;94633.28;4983703;28;20466;-82
2023/10/22 09:46:23;;;;;;;15.68;4.70;;;;;;;25.00;53.79;94635.69;4997417;28;20506;-80
2023/10/22 09:48:49;;;;;;;39.17;6.15;;;;;;;25.00;53.94;94641.00;4991687;28;20030;-81
2023/10/22 09:51:17;;;;;;;29.52;4.82;;;;;;;24.17;56.11;94643.09;5006452;28;20081;-83
2023/10/22 09:53:51;;;;;;;20.45;5.07;;;;;;;24.04;57.91;94638.25;4989935;28;20053;-84
2023/10/22 09:56:20;;;;;;;15.15;4.57;;;;;;;24.70;57.49;94628.53;4987286;28;20029;-82
2023/10/22 09:58:47;;;;;;;49.03;5.88;;;;;;;24.38;57.95;94625.34;4989226;28;20033;-84
2023/10/22 10:01:14;;;;;;;15.40;5.30;;;;;;;24.44;56.78;94619.78;4978948;28;20058;-84
2023/10/22 10:03:40;;;;;;;30.92;6.15;;;;;;;25.06;55.47;94622.16;4970248;28;20042;-83
2023/10/22 10:06:07;;;;;;;18.05;4.55;;;;;;;25.01;55.19;94600.94;4993784;28;20447;-84
2023/10/22 10:08:37;;;;;;;18.00;4.63;;;;;;;25.03;52.86;94606.00;4979577;28;20042;-83
2023/10/22 10:11:10;;;;;;;16.25;4.93;;;;;;;25.01;52.89;94595.63;4987135;28;20029;-87
2023/10/22 10:13:35;;;;;;;15.88;4.30;;;;;;;25.25;53.13;94584.44;4985721;28;20483;-83
2023/10/22 10:16:05;;;;;;;19.15;4.70;;;;;;;25.73;51.29;94596.19;5002688;28;20045;-86
2023/10/22 10:19:03;;;;;;;34.33;5.97;;;;;;;25.44;52.26;94591.53;4993461;28;20120;-84
2023/10/22 10:21:34;;;;;;;27.37;5.07;;;;;;;26.06;50.58;94592.81;5003278;28;20092;-84
2023/10/22 10:24:24;;;;;;;34.25;6.20;;;;;;;25.67;52.53;94585.63;4957449;28;20678;-83
2023/10/22 10:26:58;;;;;;;22.95;5.32;;;;;;;25.89;51.17;94574.59;5003931;28;20033;-81
2023/10/22 10:29:28;;;;;;;28.52;5.40;;;;;;;26.51;49.97;94570.47;4974285;28;20040;-82
2023/10/22 10:31:55;;;;;;;30.08;5.85;;;;;;;27.33;48.32;94569.38;5001151;28;20119;-81
2023/10/22 10:34:27;;;;;;;19.38;5.78;;;;;;;27.11;47.75;94563.78;4985246;28;20478;-84
2023/10/22 10:36:53;;;;;;;24.83;6.00;;;;;;;26.56;48.76;94565.88;4990146;28;20033;-83
2023/10/22 10:39:39;;;;;;;27.20;5.63;;;;;;;26.93;47.53;94560.00;4982958;28;20265;-82
2023/10/22 10:42:04;;;;;;;23.52;5.18;;;;;;;27.10;47.17;94548.91;4985079;28;20081;-84
2023/10/22 10:44:31;;;;;;;33.33;6.57;;;;;;;26.46;46.26;94546.56;4971552;28;20572;-85
2023/10/22 10:47:21;;;;;;;22.58;5.70;;;;;;;27.06;45.42;94542.56;5003067;28;20475;-84
2023/10/22 10:49:56;;;;;;;36.33;7.07;;;;;;;27.30;44.69;94535.34;4999613;28;20061;-83
2023/10/22 10:52:22;;;;;;;33.17;6.22;;;;;;;27.39;44.87;94533.63;5000765;28;20030;-87
2023/10/22 10:55:00;;;;;;;30.23;5.85;;;;;;;27.28;44.66;94536.72;4972912;28;20040;-84
2023/10/22 10:57:36;;;;;;;25.20;6.25;;;;;;;27.43;44.83;94516.06;5016470;28;20024;-89
2023/10/22 11:00:06;;;;;;;28.40;6.43;;;;;;;27.51;43.60;94522.63;4991490;28;20112;-88
2023/10/22 11:02:45;;;;;;;30.80;7.05;;;;;;;27.49;43.97;94522.88;4959658;28;20022;-84
2023/10/22 11:05:12;;;;;;;27.45;6.18;;;;;;;27.39;44.16;94514.25;4966325;28;20046;-85
2023/10/22 11:07:37;;;;;;;23.17;5.75;;;;;;;26.94;44.60;94527.00;4975131;28;20049;-83
2023/10/22 11:10:10;;;;;;;26.17;6.75;;;;;;;26.70;44.69;94531.47;4958236;28;20029;-86
2023/10/22 11:12:39;;;;;;;33.88;6.70;;;;;;;26.17;45.25;94523.44;4999065;28;20022;-84
2023/10/22 11:15:07;;;;;;;31.23;5.85;;;;;;;26.21;45.75;94523.69;4956120;28;20026;-86
2023/10/22 11:17:32;;;;;;;34.42;6.55;;;;;;;26.13;43.15;94516.31;5000207;28;20178;-86
2023/10/22 11:19:58;;;;;;;32.83;6.38;;;;;;;26.23;42.65;94516.25;4967548;28;20031;-86
2023/10/22 11:22:23;;;;;;;24.02;6.38;;;;;;;26.00;42.38;94493.03;4984889;28;20530;-86
2023/10/22 11:24:51;;;;;;;35.80;7.32;;;;;;;26.40;41.83;94515.81;4967015;28;20562;-85
2023/10/22 11:27:16;;;;;;;25.05;6.40;;;;;;;26.39;41.91;94517.72;4973887;28;20021;-84